sensor_id;sensor_type;location;lat;lon;timestamp;P1;durP1;ratioP1;P2;durP2;ratioP2
18251;SDS011;26917;52.328;20.878;2023-03-23T00:02:07;47.15;;;25.67;;
18251;SDS011;26917;52.328;20.878;2023-03-23T00:04:35;46.13;;;24.63;;
18251;SDS011;26917;52.328;20.878;2023-03-23T00:07:02;50.65;;;24.83;;
18251;SDS011;26917;52.328;20.878;2023-03-23T00:09:30;50.65;;;25.25;;
18251;SDS011;26917;52.328;20.878;2023-03-23T00:12:01;46.10;;;24.60;;
18251;SDS011;26917;52.328;20.878;2023-03-23T00:14:31;48.78;;;24.45;;
18251;SDS011;26917;52.328;20.878;2023-03-23T00:17:06;45.80;;;24.25;;
18251;SDS011;26917;52.328;20.878;2023-03-23T00:19:36;56.95;;;25.60;;
18251;SDS011;26917;52.328;20.878;2023-03-23T00:22:11;47.33;;;23.75;;
18251;SDS011;26917;52.328;20.878;2023-03-23T00:24:39;49.17;;;25.13;;
18251;SDS011;26917;52.328;20.878;2023-03-23T00:27:09;42.78;;;23.95;;
18251;SDS011;26917;52.328;20.878;2023-03-23T00:29:41;49.67;;;25.40;;
18251;SDS011;26917;52.328;20.878;2023-03-23T00:32:10;44.45;;;24.42;;
18251;SDS011;26917;52.328;20.878;2023-03-23T00:34:39;50.47;;;24.45;;
18251;SDS011;26917;52.328;20.878;2023-03-23T00:37:08;46.85;;;24.42;;
18251;SDS011;26917;52.328;20.878;2023-03-23T00:39:37;49.40;;;24.95;;
18251;SDS011;26917;52.328;20.878;2023-03-23T00:42:13;48.08;;;23.25;;
18251;SDS011;26917;52.328;20.878;2023-03-23T00:44:41;45.83;;;24.23;;
18251;SDS011;26917;52.328;20.878;2023-03-23T00:47:10;43.78;;;23.05;;
18251;SDS011;26917;52.328;20.878;2023-03-23T00:49:38;48.13;;;25.00;;
18251;SDS011;26917;52.328;20.878;2023-03-23T00:52:06;41.40;;;22.73;;
18251;SDS011;26917;52.328;20.878;2023-03-23T00:54:34;42.38;;;23.02;;
18251;SDS011;26917;52.328;20.878;2023-03-23T00:57:03;44.00;;;22.92;;
18251;SDS011;26917;52.328;20.878;2023-03-23T00:59:41;44.65;;;23.30;;
18251;SDS011;26917;52.328;20.878;2023-03-23T01:02:08;41.97;;;22.65;;
18251;SDS011;26917;52.328;20.878;2023-03-23T01:04:37;44.30;;;21.48;;
18251;SDS011;26917;52.328;20.878;2023-03-23T01:07:05;39.85;;;21.05;;
18251;SDS011;26917;52.328;20.878;2023-03-23T01:09:33;38.70;;;21.27;;
18251;SDS011;26917;52.328;20.878;2023-03-23T01:12:01;50.70;;;22.50;;
18251;SDS011;26917;52.328;20.878;2023-03-23T01:14:32;43.05;;;22.63;;
18251;SDS011;26917;52.328;20.878;2023-03-23T01:17:00;42.38;;;21.45;;
18251;SDS011;26917;52.328;20.878;2023-03-23T01:19:28;40.03;;;21.85;;
18251;SDS011;26917;52.328;20.878;2023-03-23T01:21:55;45.03;;;23.60;;
18251;SDS011;26917;52.328;20.878;2023-03-23T01:24:22;43.60;;;23.13;;
18251;SDS011;26917;52.328;20.878;2023-03-23T01:26:49;39.63;;;22.00;;
18251;SDS011;26917;52.328;20.878;2023-03-23T01:29:17;45.00;;;22.63;;
18251;SDS011;26917;52.328;20.878;2023-03-23T01:31:45;37.85;;;21.60;;
18251;SDS011;26917;52.328;20.878;2023-03-23T01:34:13;39.25;;;20.67;;
18251;SDS011;26917;52.328;20.878;2023-03-23T01:36:40;43.00;;;21.27;;
18251;SDS011;26917;52.328;20.878;2023-03-23T01:39:07;51.80;;;23.08;;
18251;SDS011;26917;52.328;20.878;2023-03-23T01:41:35;36.85;;;20.48;;
18251;SDS011;26917;52.328;20.878;2023-03-23T01:44:59;48.72;;;20.60;;
18251;SDS011;26917;52.328;20.878;2023-03-23T01:47:29;42.58;;;21.08;;
18251;SDS011;26917;52.328;20.878;2023-03-23T01:49:57;40.95;;;21.00;;
18251;SDS011;26917;52.328;20.878;2023-03-23T01:52:25;42.65;;;20.98;;
18251;SDS011;26917;52.328;20.878;2023-03-23T01:55:00;40.47;;;21.58;;
18251;SDS011;26917;52.328;20.878;2023-03-23T01:57:28;39.05;;;19.70;;
18251;SDS011;26917;52.328;20.878;2023-03-23T01:59:59;39.97;;;21.33;;
18251;SDS011;26917;52.328;20.878;2023-03-23T02:02:40;37.90;;;19.95;;
18251;SDS011;26917;52.328;20.878;2023-03-23T02:05:11;39.75;;;19.83;;
18251;SDS011;26917;52.328;20.878;2023-03-23T02:07:43;40.30;;;19.70;;
18251;SDS011;26917;52.328;20.878;2023-03-23T02:10:11;37.78;;;21.60;;
18251;SDS011;26917;52.328;20.878;2023-03-23T02:12:39;44.25;;;21.88;;
18251;SDS011;26917;52.328;20.878;2023-03-23T02:15:07;37.38;;;20.02;;
18251;SDS011;26917;52.328;20.878;2023-03-23T02:17:42;43.53;;;21.65;;
18251;SDS011;26917;52.328;20.878;2023-03-23T02:20:29;40.22;;;19.90;;
18251;SDS011;26917;52.328;20.878;2023-03-23T02:23:24;38.25;;;20.35;;
18251;SDS011;26917;52.328;20.878;2023-03-23T02:26:19;40.05;;;20.25;;
18251;SDS011;26917;52.328;20.878;2023-03-23T02:29:07;34.17;;;19.50;;
18251;SDS011;26917;52.328;20.878;2023-03-23T02:31:58;37.30;;;19.42;;
18251;SDS011;26917;52.328;20.878;2023-03-23T02:34:41;33.17;;;18.23;;
18251;SDS011;26917;52.328;20.878;2023-03-23T02:37:13;36.58;;;19.55;;
18251;SDS011;26917;52.328;20.878;2023-03-23T02:39:47;37.30;;;19.85;;
18251;SDS011;26917;52.328;20.878;2023-03-23T02:42:17;38.88;;;19.65;;
18251;SDS011;26917;52.328;20.878;2023-03-23T02:44:47;36.72;;;18.70;;
18251;SDS011;26917;52.328;20.878;2023-03-23T02:47:19;35.92;;;18.65;;
18251;SDS011;26917;52.328;20.878;2023-03-23T02:49:51;35.00;;;20.77;;
18251;SDS011;26917;52.328;20.878;2023-03-23T02:52:21;34.42;;;18.73;;
18251;SDS011;26917;52.328;20.878;2023-03-23T02:54:52;35.42;;;19.80;;
18251;SDS011;26917;52.328;20.878;2023-03-23T02:57:21;38.33;;;19.77;;
18251;SDS011;26917;52.328;20.878;2023-03-23T02:59:51;35.78;;;18.98;;
18251;SDS011;26917;52.328;20.878;2023-03-23T03:02:19;36.33;;;19.15;;
18251;SDS011;26917;52.328;20.878;2023-03-23T03:04:53;32.92;;;18.10;;
18251;SDS011;26917;52.328;20.878;2023-03-23T03:07:44;36.63;;;17.52;;
18251;SDS011;26917;52.328;20.878;2023-03-23T03:10:19;41.13;;;18.80;;
18251;SDS011;26917;52.328;20.878;2023-03-23T03:12:53;30.38;;;17.05;;
18251;SDS011;26917;52.328;20.878;2023-03-23T03:15:31;34.28;;;18.73;;
18251;SDS011;26917;52.328;20.878;2023-03-23T03:18:03;34.92;;;18.15;;
18251;SDS011;26917;52.328;20.878;2023-03-23T03:20:40;34.95;;;19.23;;
18251;SDS011;26917;52.328;20.878;2023-03-23T03:23:11;35.70;;;19.15;;
18251;SDS011;26917;52.328;20.878;2023-03-23T03:25:43;36.95;;;18.23;;
18251;SDS011;26917;52.328;20.878;2023-03-23T03:28:18;34.55;;;18.83;;
18251;SDS011;26917;52.328;20.878;2023-03-23T03:30:49;32.72;;;18.40;;
18251;SDS011;26917;52.328;20.878;2023-03-23T03:33:21;38.78;;;18.60;;
18251;SDS011;26917;52.328;20.878;2023-03-23T03:35:54;32.58;;;17.58;;
18251;SDS011;26917;52.328;20.878;2023-03-23T03:38:23;34.05;;;19.10;;
18251;SDS011;26917;52.328;20.878;2023-03-23T03:40:55;35.42;;;17.08;;
18251;SDS011;26917;52.328;20.878;2023-03-23T03:43:23;37.60;;;18.90;;
18251;SDS011;26917;52.328;20.878;2023-03-23T03:45:51;34.45;;;18.20;;
18251;SDS011;26917;52.328;20.878;2023-03-23T03:48:18;33.05;;;18.23;;
18251;SDS011;26917;52.328;20.878;2023-03-23T03:50:46;35.45;;;17.50;;
18251;SDS011;26917;52.328;20.878;2023-03-23T03:53:15;34.65;;;17.90;;
18251;SDS011;26917;52.328;20.878;2023-03-23T03:55:43;37.97;;;17.83;;
18251;SDS011;26917;52.328;20.878;2023-03-23T03:58:15;30.83;;;17.70;;
18251;SDS011;26917;52.328;20.878;2023-03-23T04:01:05;32.67;;;17.02;;
18251;SDS011;26917;52.328;20.878;2023-03-23T04:03:37;34.65;;;17.75;;
18251;SDS011;26917;52.328;20.878;2023-03-23T04:06:21;34.75;;;16.90;;
18251;SDS011;26917;52.328;20.878;2023-03-23T04:08:51;34.72;;;17.15;;
18251;SDS011;26917;52.328;20.878;2023-03-23T04:11:18;32.90;;;17.83;;
18251;SDS011;26917;52.328;20.878;2023-03-23T04:13:46;34.72;;;19.17;;
18251;SDS011;26917;52.328;20.878;2023-03-23T04:16:24;29.98;;;16.67;;
18251;SDS011;26917;52.328;20.878;2023-03-23T04:18:57;30.80;;;17.48;;
18251;SDS011;26917;52.328;20.878;2023-03-23T04:21:25;34.50;;;17.48;;
18251;SDS011;26917;52.328;20.878;2023-03-23T04:23:56;38.60;;;18.95;;
18251;SDS011;26917;52.328;20.878;2023-03-23T04:26:25;31.92;;;17.85;;
18251;SDS011;26917;52.328;20.878;2023-03-23T04:28:57;32.95;;;16.92;;
18251;SDS011;26917;52.328;20.878;2023-03-23T04:31:25;31.42;;;17.98;;
18251;SDS011;26917;52.328;20.878;2023-03-23T04:34:00;30.67;;;16.25;;
18251;SDS011;26917;52.328;20.878;2023-03-23T04:36:35;34.55;;;17.15;;
18251;SDS011;26917;52.328;20.878;2023-03-23T04:39:12;31.50;;;18.23;;
18251;SDS011;26917;52.328;20.878;2023-03-23T04:41:42;35.22;;;17.67;;
18251;SDS011;26917;52.328;20.878;2023-03-23T04:44:29;36.13;;;17.83;;
18251;SDS011;26917;52.328;20.878;2023-03-23T04:47:03;32.28;;;16.67;;
18251;SDS011;26917;52.328;20.878;2023-03-23T04:49:39;28.83;;;16.60;;
18251;SDS011;26917;52.328;20.878;2023-03-23T04:52:21;33.78;;;17.17;;
18251;SDS011;26917;52.328;20.878;2023-03-23T04:54:56;31.75;;;17.42;;
18251;SDS011;26917;52.328;20.878;2023-03-23T04:57:24;30.48;;;17.48;;
18251;SDS011;26917;52.328;20.878;2023-03-23T05:00:17;39.70;;;17.25;;
18251;SDS011;26917;52.328;20.878;2023-03-23T05:02:52;34.63;;;17.45;;
18251;SDS011;26917;52.328;20.878;2023-03-23T05:05:23;34.28;;;17.08;;
18251;SDS011;26917;52.328;20.878;2023-03-23T05:07:55;32.83;;;17.13;;
18251;SDS011;26917;52.328;20.878;2023-03-23T05:10:27;24.85;;;15.43;;
18251;SDS011;26917;52.328;20.878;2023-03-23T05:13:01;30.85;;;16.60;;
18251;SDS011;26917;52.328;20.878;2023-03-23T05:15:28;32.97;;;17.58;;
18251;SDS011;26917;52.328;20.878;2023-03-23T05:17:56;31.58;;;16.50;;
18251;SDS011;26917;52.328;20.878;2023-03-23T05:20:24;37.92;;;17.63;;
18251;SDS011;26917;52.328;20.878;2023-03-23T05:22:58;32.17;;;15.90;;
18251;SDS011;26917;52.328;20.878;2023-03-23T05:25:34;28.35;;;16.13;;
18251;SDS011;26917;52.328;20.878;2023-03-23T05:28:09;31.70;;;17.15;;
18251;SDS011;26917;52.328;20.878;2023-03-23T05:30:51;31.55;;;15.93;;
18251;SDS011;26917;52.328;20.878;2023-03-23T05:33:19;35.22;;;16.30;;
18251;SDS011;26917;52.328;20.878;2023-03-23T05:35:54;27.40;;;15.82;;
18251;SDS011;26917;52.328;20.878;2023-03-23T05:38:27;27.45;;;15.25;;
18251;SDS011;26917;52.328;20.878;2023-03-23T05:40:59;27.75;;;14.88;;
18251;SDS011;26917;52.328;20.878;2023-03-23T05:43:31;31.00;;;16.17;;
18251;SDS011;26917;52.328;20.878;2023-03-23T05:46:27;30.40;;;15.27;;
18251;SDS011;26917;52.328;20.878;2023-03-23T05:48:58;26.98;;;15.07;;
18251;SDS011;26917;52.328;20.878;2023-03-23T05:51:32;29.13;;;14.48;;
18251;SDS011;26917;52.328;20.878;2023-03-23T05:54:01;27.50;;;14.15;;
18251;SDS011;26917;52.328;20.878;2023-03-23T05:56:30;27.75;;;14.68;;
18251;SDS011;26917;52.328;20.878;2023-03-23T05:59:08;28.25;;;14.95;;
18251;SDS011;26917;52.328;20.878;2023-03-23T06:01:37;31.02;;;14.40;;
18251;SDS011;26917;52.328;20.878;2023-03-23T06:04:05;25.35;;;13.95;;
18251;SDS011;26917;52.328;20.878;2023-03-23T06:06:50;24.60;;;13.70;;
18251;SDS011;26917;52.328;20.878;2023-03-23T06:09:18;21.95;;;13.77;;
18251;SDS011;26917;52.328;20.878;2023-03-23T06:12:13;23.20;;;12.82;;
18251;SDS011;26917;52.328;20.878;2023-03-23T06:15:07;28.10;;;13.82;;
18251;SDS011;26917;52.328;20.878;2023-03-23T06:17:59;26.95;;;13.73;;
18251;SDS011;26917;52.328;20.878;2023-03-23T06:20:35;26.02;;;13.95;;
18251;SDS011;26917;52.328;20.878;2023-03-23T06:23:16;25.80;;;13.18;;
18251;SDS011;26917;52.328;20.878;2023-03-23T06:25:45;24.48;;;13.13;;
18251;SDS011;26917;52.328;20.878;2023-03-23T06:28:14;22.25;;;12.95;;
18251;SDS011;26917;52.328;20.878;2023-03-23T06:30:46;28.15;;;14.00;;
18251;SDS011;26917;52.328;20.878;2023-03-23T06:33:13;26.13;;;13.02;;
18251;SDS011;26917;52.328;20.878;2023-03-23T06:36:15;24.85;;;13.50;;
18251;SDS011;26917;52.328;20.878;2023-03-23T06:39:01;22.45;;;12.52;;
18251;SDS011;26917;52.328;20.878;2023-03-23T06:41:43;22.08;;;12.23;;
18251;SDS011;26917;52.328;20.878;2023-03-23T06:44:12;22.83;;;12.90;;
18251;SDS011;26917;52.328;20.878;2023-03-23T06:46:40;23.30;;;12.90;;
18251;SDS011;26917;52.328;20.878;2023-03-23T06:49:16;25.00;;;13.00;;
18251;SDS011;26917;52.328;20.878;2023-03-23T06:52:00;21.92;;;12.65;;
18251;SDS011;26917;52.328;20.878;2023-03-23T06:54:30;22.45;;;12.60;;
18251;SDS011;26917;52.328;20.878;2023-03-23T06:56:59;18.80;;;11.10;;
18251;SDS011;26917;52.328;20.878;2023-03-23T06:59:28;21.63;;;11.45;;
18251;SDS011;26917;52.328;20.878;2023-03-23T07:01:56;23.13;;;11.93;;
18251;SDS011;26917;52.328;20.878;2023-03-23T07:04:24;20.45;;;10.75;;
18251;SDS011;26917;52.328;20.878;2023-03-23T07:07:00;18.17;;;10.50;;
18251;SDS011;26917;52.328;20.878;2023-03-23T07:09:30;17.55;;;9.68;;
18251;SDS011;26917;52.328;20.878;2023-03-23T07:11:57;21.73;;;10.23;;
18251;SDS011;26917;52.328;20.878;2023-03-23T07:14:33;17.48;;;9.45;;
18251;SDS011;26917;52.328;20.878;2023-03-23T07:17:02;20.35;;;9.40;;
18251;SDS011;26917;52.328;20.878;2023-03-23T07:19:34;22.88;;;10.07;;
18251;SDS011;26917;52.328;20.878;2023-03-23T07:22:03;19.05;;;10.10;;
18251;SDS011;26917;52.328;20.878;2023-03-23T07:24:32;18.90;;;10.20;;
18251;SDS011;26917;52.328;20.878;2023-03-23T07:27:16;14.27;;;8.88;;
18251;SDS011;26917;52.328;20.878;2023-03-23T07:29:45;16.85;;;9.82;;
18251;SDS011;26917;52.328;20.878;2023-03-23T07:32:19;22.92;;;9.18;;
18251;SDS011;26917;52.328;20.878;2023-03-23T07:34:46;16.98;;;8.77;;
18251;SDS011;26917;52.328;20.878;2023-03-23T07:37:23;16.77;;;8.68;;
18251;SDS011;26917;52.328;20.878;2023-03-23T07:39:51;14.77;;;8.93;;
18251;SDS011;26917;52.328;20.878;2023-03-23T07:42:18;16.33;;;8.98;;
18251;SDS011;26917;52.328;20.878;2023-03-23T07:44:51;18.05;;;9.50;;
18251;SDS011;26917;52.328;20.878;2023-03-23T07:47:18;12.80;;;8.88;;
18251;SDS011;26917;52.328;20.878;2023-03-23T07:49:47;17.38;;;8.52;;
18251;SDS011;26917;52.328;20.878;2023-03-23T07:52:22;14.55;;;8.23;;
18251;SDS011;26917;52.328;20.878;2023-03-23T07:54:51;19.20;;;7.95;;
18251;SDS011;26917;52.328;20.878;2023-03-23T07:57:36;16.30;;;8.57;;
18251;SDS011;26917;52.328;20.878;2023-03-23T08:00:07;15.50;;;8.05;;
18251;SDS011;26917;52.328;20.878;2023-03-23T08:02:40;17.33;;;7.15;;
18251;SDS011;26917;52.328;20.878;2023-03-23T08:05:25;13.05;;;7.00;;
18251;SDS011;26917;52.328;20.878;2023-03-23T08:08:16;11.88;;;7.18;;
18251;SDS011;26917;52.328;20.878;2023-03-23T08:11:02;14.15;;;7.53;;
18251;SDS011;26917;52.328;20.878;2023-03-23T08:13:36;17.27;;;7.57;;
18251;SDS011;26917;52.328;20.878;2023-03-23T08:16:26;19.52;;;6.82;;
18251;SDS011;26917;52.328;20.878;2023-03-23T08:19:29;17.10;;;7.43;;
18251;SDS011;26917;52.328;20.878;2023-03-23T08:22:19;14.48;;;7.70;;
18251;SDS011;26917;52.328;20.878;2023-03-23T08:25:08;15.30;;;6.97;;
18251;SDS011;26917;52.328;20.878;2023-03-23T08:28:01;12.65;;;7.57;;
18251;SDS011;26917;52.328;20.878;2023-03-23T08:30:56;15.52;;;7.35;;
18251;SDS011;26917;52.328;20.878;2023-03-23T08:33:44;16.90;;;7.45;;
18251;SDS011;26917;52.328;20.878;2023-03-23T08:36:39;13.25;;;7.35;;
18251;SDS011;26917;52.328;20.878;2023-03-23T08:39:34;11.05;;;6.53;;
18251;SDS011;26917;52.328;20.878;2023-03-23T08:42:25;19.38;;;7.95;;
18251;SDS011;26917;52.328;20.878;2023-03-23T08:45:04;11.02;;;6.80;;
18251;SDS011;26917;52.328;20.878;2023-03-23T08:47:53;13.13;;;6.80;;
18251;SDS011;26917;52.328;20.878;2023-03-23T08:50:41;11.80;;;6.68;;
18251;SDS011;26917;52.328;20.878;2023-03-23T08:53:21;12.30;;;5.78;;
18251;SDS011;26917;52.328;20.878;2023-03-23T08:56:19;9.80;;;6.40;;
18251;SDS011;26917;52.328;20.878;2023-03-23T08:59:15;10.93;;;6.95;;
18251;SDS011;26917;52.328;20.878;2023-03-23T09:02:14;8.55;;;6.03;;
18251;SDS011;26917;52.328;20.878;2023-03-23T09:04:50;10.85;;;6.18;;
18251;SDS011;26917;52.328;20.878;2023-03-23T09:07:26;9.18;;;5.72;;
18251;SDS011;26917;52.328;20.878;2023-03-23T09:09:53;10.57;;;5.88;;
18251;SDS011;26917;52.328;20.878;2023-03-23T09:12:20;9.02;;;5.65;;
18251;SDS011;26917;52.328;20.878;2023-03-23T09:14:53;9.85;;;5.45;;
18251;SDS011;26917;52.328;20.878;2023-03-23T09:17:20;9.52;;;5.72;;
18251;SDS011;26917;52.328;20.878;2023-03-23T09:19:47;20.65;;;8.52;;
18251;SDS011;26917;52.328;20.878;2023-03-23T09:22:16;32.42;;;9.60;;
18251;SDS011;26917;52.328;20.878;2023-03-23T09:24:46;23.38;;;8.20;;
18251;SDS011;26917;52.328;20.878;2023-03-23T09:27:13;22.65;;;7.55;;
18251;SDS011;26917;52.328;20.878;2023-03-23T09:29:41;11.95;;;5.95;;
18251;SDS011;26917;52.328;20.878;2023-03-23T09:32:11;10.65;;;5.22;;
18251;SDS011;26917;52.328;20.878;2023-03-23T09:34:40;7.00;;;5.00;;
18251;SDS011;26917;52.328;20.878;2023-03-23T09:37:07;9.18;;;5.30;;
18251;SDS011;26917;52.328;20.878;2023-03-23T09:39:34;8.82;;;5.32;;
18251;SDS011;26917;52.328;20.878;2023-03-23T09:42:07;8.63;;;5.65;;
18251;SDS011;26917;52.328;20.878;2023-03-23T09:44:51;10.48;;;5.63;;
18251;SDS011;26917;52.328;20.878;2023-03-23T09:47:30;8.77;;;5.47;;
18251;SDS011;26917;52.328;20.878;2023-03-23T09:50:07;9.55;;;5.50;;
18251;SDS011;26917;52.328;20.878;2023-03-23T09:52:39;8.77;;;5.35;;
18251;SDS011;26917;52.328;20.878;2023-03-23T09:55:11;10.90;;;5.40;;
18251;SDS011;26917;52.328;20.878;2023-03-23T09:57:44;9.10;;;4.93;;
18251;SDS011;26917;52.328;20.878;2023-03-23T10:00:15;9.10;;;5.32;;
18251;SDS011;26917;52.328;20.878;2023-03-23T10:02:48;13.82;;;5.53;;
18251;SDS011;26917;52.328;20.878;2023-03-23T10:05:25;7.72;;;4.72;;
18251;SDS011;26917;52.328;20.878;2023-03-23T10:07:56;9.18;;;4.90;;
18251;SDS011;26917;52.328;20.878;2023-03-23T10:10:39;7.07;;;4.15;;
18251;SDS011;26917;52.328;20.878;2023-03-23T10:13:18;7.57;;;4.07;;
18251;SDS011;26917;52.328;20.878;2023-03-23T10:15:51;9.65;;;3.97;;
18251;SDS011;26917;52.328;20.878;2023-03-23T10:18:22;4.82;;;3.50;;
18251;SDS011;26917;52.328;20.878;2023-03-23T10:20:54;7.70;;;3.47;;
18251;SDS011;26917;52.328;20.878;2023-03-23T10:23:35;7.28;;;3.17;;
18251;SDS011;26917;52.328;20.878;2023-03-23T10:26:13;5.13;;;3.08;;
18251;SDS011;26917;52.328;20.878;2023-03-23T10:28:50;4.53;;;2.97;;
18251;SDS011;26917;52.328;20.878;2023-03-23T10:31:20;7.47;;;3.67;;
18251;SDS011;26917;52.328;20.878;2023-03-23T10:33:50;7.15;;;3.78;;
18251;SDS011;26917;52.328;20.878;2023-03-23T10:36:21;5.80;;;3.97;;
18251;SDS011;26917;52.328;20.878;2023-03-23T10:38:53;8.90;;;3.88;;
18251;SDS011;26917;52.328;20.878;2023-03-23T10:41:26;9.45;;;3.47;;
18251;SDS011;26917;52.328;20.878;2023-03-23T10:43:55;6.38;;;3.50;;
18251;SDS011;26917;52.328;20.878;2023-03-23T10:46:25;6.63;;;3.17;;
18251;SDS011;26917;52.328;20.878;2023-03-23T10:49:04;4.57;;;2.67;;
18251;SDS011;26917;52.328;20.878;2023-03-23T10:51:40;7.55;;;3.00;;
18251;SDS011;26917;52.328;20.878;2023-03-23T10:54:09;8.77;;;3.40;;
18251;SDS011;26917;52.328;20.878;2023-03-23T10:56:37;6.70;;;3.83;;
18251;SDS011;26917;52.328;20.878;2023-03-23T10:59:19;8.38;;;3.25;;
18251;SDS011;26917;52.328;20.878;2023-03-23T11:01:53;5.32;;;3.67;;
18251;SDS011;26917;52.328;20.878;2023-03-23T11:04:23;5.18;;;3.88;;
18251;SDS011;26917;52.328;20.878;2023-03-23T11:06:51;6.75;;;3.70;;
18251;SDS011;26917;52.328;20.878;2023-03-23T11:09:22;6.10;;;3.85;;
18251;SDS011;26917;52.328;20.878;2023-03-23T11:12:02;6.18;;;3.17;;
18251;SDS011;26917;52.328;20.878;2023-03-23T11:14:31;7.10;;;4.13;;
18251;SDS011;26917;52.328;20.878;2023-03-23T11:17:05;6.82;;;3.47;;
18251;SDS011;26917;52.328;20.878;2023-03-23T11:19:46;7.55;;;3.00;;
18251;SDS011;26917;52.328;20.878;2023-03-23T11:22:15;5.75;;;3.15;;
18251;SDS011;26917;52.328;20.878;2023-03-23T11:24:47;4.95;;;2.70;;
18251;SDS011;26917;52.328;20.878;2023-03-23T11:27:18;6.15;;;3.40;;
18251;SDS011;26917;52.328;20.878;2023-03-23T11:29:49;5.38;;;3.05;;
18251;SDS011;26917;52.328;20.878;2023-03-23T11:32:21;7.38;;;3.70;;
18251;SDS011;26917;52.328;20.878;2023-03-23T11:34:53;6.70;;;3.15;;
18251;SDS011;26917;52.328;20.878;2023-03-23T11:37:25;7.13;;;3.10;;
18251;SDS011;26917;52.328;20.878;2023-03-23T11:39:57;4.28;;;3.03;;
18251;SDS011;26917;52.328;20.878;2023-03-23T11:42:26;5.68;;;3.30;;
18251;SDS011;26917;52.328;20.878;2023-03-23T11:45:14;6.28;;;3.08;;
18251;SDS011;26917;52.328;20.878;2023-03-23T11:47:47;4.90;;;3.17;;
18251;SDS011;26917;52.328;20.878;2023-03-23T11:50:22;7.35;;;3.20;;
18251;SDS011;26917;52.328;20.878;2023-03-23T11:53:08;4.68;;;3.30;;
18251;SDS011;26917;52.328;20.878;2023-03-23T11:55:50;5.75;;;3.08;;
18251;SDS011;26917;52.328;20.878;2023-03-23T11:58:25;3.83;;;2.85;;
18251;SDS011;26917;52.328;20.878;2023-03-23T12:01:00;8.75;;;2.88;;
18251;SDS011;26917;52.328;20.878;2023-03-23T12:03:45;3.53;;;2.70;;
18251;SDS011;26917;52.328;20.878;2023-03-23T12:06:27;5.97;;;2.78;;
18251;SDS011;26917;52.328;20.878;2023-03-23T12:09:04;4.95;;;2.78;;
18251;SDS011;26917;52.328;20.878;2023-03-23T12:11:39;3.42;;;2.45;;
18251;SDS011;26917;52.328;20.878;2023-03-23T12:14:16;4.63;;;2.63;;
18251;SDS011;26917;52.328;20.878;2023-03-23T12:16:59;6.70;;;2.75;;
18251;SDS011;26917;52.328;20.878;2023-03-23T12:19:40;4.90;;;2.78;;
18251;SDS011;26917;52.328;20.878;2023-03-23T12:22:24;4.70;;;2.75;;
18251;SDS011;26917;52.328;20.878;2023-03-23T12:25:15;3.17;;;2.20;;
18251;SDS011;26917;52.328;20.878;2023-03-23T12:28:06;3.33;;;2.35;;
18251;SDS011;26917;52.328;20.878;2023-03-23T12:30:44;4.68;;;2.60;;
18251;SDS011;26917;52.328;20.878;2023-03-23T12:33:23;4.15;;;2.58;;
18251;SDS011;26917;52.328;20.878;2023-03-23T12:36:12;6.53;;;3.13;;
18251;SDS011;26917;52.328;20.878;2023-03-23T12:39:50;5.57;;;2.67;;
18251;SDS011;26917;52.328;20.878;2023-03-23T12:42:54;11.30;;;2.97;;
18251;SDS011;26917;52.328;20.878;2023-03-23T12:45:42;3.33;;;2.67;;
18251;SDS011;26917;52.328;20.878;2023-03-23T12:48:23;5.88;;;2.58;;
18251;SDS011;26917;52.328;20.878;2023-03-23T12:51:02;4.32;;;2.70;;
18251;SDS011;26917;52.328;20.878;2023-03-23T12:53:38;2.90;;;2.50;;
18251;SDS011;26917;52.328;20.878;2023-03-23T12:56:16;5.00;;;2.78;;
18251;SDS011;26917;52.328;20.878;2023-03-23T12:58:49;6.35;;;2.97;;
18251;SDS011;26917;52.328;20.878;2023-03-23T13:01:24;6.60;;;2.85;;
18251;SDS011;26917;52.328;20.878;2023-03-23T13:03:56;5.68;;;3.17;;
18251;SDS011;26917;52.328;20.878;2023-03-23T13:06:31;4.15;;;3.08;;
18251;SDS011;26917;52.328;20.878;2023-03-23T13:09:03;3.42;;;2.63;;
18251;SDS011;26917;52.328;20.878;2023-03-23T13:11:35;6.60;;;2.90;;
18251;SDS011;26917;52.328;20.878;2023-03-23T13:14:09;4.00;;;3.00;;
18251;SDS011;26917;52.328;20.878;2023-03-23T13:16:48;3.67;;;2.47;;
18251;SDS011;26917;52.328;20.878;2023-03-23T13:19:36;5.47;;;2.58;;
18251;SDS011;26917;52.328;20.878;2023-03-23T13:22:13;4.63;;;3.03;;
18251;SDS011;26917;52.328;20.878;2023-03-23T13:24:46;3.50;;;2.53;;
18251;SDS011;26917;52.328;20.878;2023-03-23T13:27:17;5.10;;;2.83;;
18251;SDS011;26917;52.328;20.878;2023-03-23T13:29:50;3.00;;;2.33;;
18251;SDS011;26917;52.328;20.878;2023-03-23T13:32:18;5.97;;;2.40;;
18251;SDS011;26917;52.328;20.878;2023-03-23T13:35:02;3.78;;;2.85;;
18251;SDS011;26917;52.328;20.878;2023-03-23T13:37:34;3.65;;;2.67;;
18251;SDS011;26917;52.328;20.878;2023-03-23T13:40:15;3.88;;;2.65;;
18251;SDS011;26917;52.328;20.878;2023-03-23T13:42:48;3.97;;;2.10;;
18251;SDS011;26917;52.328;20.878;2023-03-23T13:45:20;3.78;;;2.33;;
18251;SDS011;26917;52.328;20.878;2023-03-23T13:48:03;3.47;;;2.70;;
18251;SDS011;26917;52.328;20.878;2023-03-23T13:50:50;4.30;;;2.55;;
18251;SDS011;26917;52.328;20.878;2023-03-23T13:53:24;6.78;;;2.47;;
18251;SDS011;26917;52.328;20.878;2023-03-23T13:56:06;3.10;;;2.38;;
18251;SDS011;26917;52.328;20.878;2023-03-23T13:58:46;5.78;;;2.70;;
18251;SDS011;26917;52.328;20.878;2023-03-23T14:01:15;9.60;;;2.63;;
18251;SDS011;26917;52.328;20.878;2023-03-23T14:03:45;3.85;;;2.35;;
18251;SDS011;26917;52.328;20.878;2023-03-23T14:06:18;5.57;;;2.50;;
18251;SDS011;26917;52.328;20.878;2023-03-23T14:09:10;4.90;;;2.72;;
18251;SDS011;26917;52.328;20.878;2023-03-23T14:11:49;6.68;;;2.83;;
18251;SDS011;26917;52.328;20.878;2023-03-23T14:14:31;5.32;;;3.17;;
18251;SDS011;26917;52.328;20.878;2023-03-23T14:17:05;6.32;;;2.90;;
18251;SDS011;26917;52.328;20.878;2023-03-23T14:19:37;9.85;;;2.95;;
18251;SDS011;26917;52.328;20.878;2023-03-23T14:22:16;3.67;;;2.45;;
18251;SDS011;26917;52.328;20.878;2023-03-23T14:24:45;4.78;;;2.88;;
18251;SDS011;26917;52.328;20.878;2023-03-23T14:27:13;4.63;;;3.05;;
18251;SDS011;26917;52.328;20.878;2023-03-23T14:29:42;7.45;;;3.67;;
18251;SDS011;26917;52.328;20.878;2023-03-23T14:32:11;9.52;;;3.53;;
18251;SDS011;26917;52.328;20.878;2023-03-23T14:34:41;6.40;;;3.17;;
18251;SDS011;26917;52.328;20.878;2023-03-23T14:37:09;7.20;;;3.60;;
18251;SDS011;26917;52.328;20.878;2023-03-23T14:39:43;7.47;;;4.10;;
18251;SDS011;26917;52.328;20.878;2023-03-23T14:42:13;6.18;;;3.95;;
18251;SDS011;26917;52.328;20.878;2023-03-23T14:44:43;5.28;;;3.60;;
18251;SDS011;26917;52.328;20.878;2023-03-23T14:47:14;7.95;;;4.28;;
18251;SDS011;26917;52.328;20.878;2023-03-23T14:49:46;7.55;;;4.15;;
18251;SDS011;26917;52.328;20.878;2023-03-23T14:52:15;8.50;;;4.22;;
18251;SDS011;26917;52.328;20.878;2023-03-23T14:54:45;11.25;;;4.20;;
18251;SDS011;26917;52.328;20.878;2023-03-23T14:57:13;6.57;;;3.50;;
18251;SDS011;26917;52.328;20.878;2023-03-23T14:59:41;5.22;;;3.80;;
18251;SDS011;26917;52.328;20.878;2023-03-23T15:02:11;6.07;;;4.07;;
18251;SDS011;26917;52.328;20.878;2023-03-23T15:04:40;5.97;;;4.35;;
18251;SDS011;26917;52.328;20.878;2023-03-23T15:07:09;5.63;;;3.60;;